Time;durP1;ratioP1;P1;durP2;ratioP2;P2;SDS_P1;SDS_P2;PMS_P1;PMS_P2;Temp;Humidity;BMP_temperature;BMP_pressure;BME280_temperature;BME280_humidity;BME280_pressure;Samples;Min_cycle;Max_cycle;Signal;HPM_P1;HPM_P2
2022/06/08 00:00:18;;;;;;;23.50;12.65;;;;;;;;;;5160750;27;20077;-76
2022/06/08 00:02:47;;;;;;;24.33;14.10;;;;;;;;;;5155288;27;20055;-76
2022/06/08 00:05:14;;;;;;;26.77;13.75;;;;;;;;;;5147048;27;20149;-76
2022/06/08 00:07:40;;;;;;;25.38;13.73;;;;;;;;;;5167934;27;20054;-76
2022/06/08 00:10:07;;;;;;;23.45;12.98;;;;;;;;;;5148867;27;20509;-76
2022/06/08 00:12:34;;;;;;;28.25;13.20;;;;;;;;;;5152814;27;20090;-76
2022/06/08 00:15:01;;;;;;;24.30;13.32;;;;;;;;;;5147179;27;20154;-76
2022/06/08 00:17:27;;;;;;;29.10;13.68;;;;;;;;;;5147979;27;20080;-76
2022/06/08 00:19:54;;;;;;;29.13;13.55;;;;;;;;;;5135260;27;20059;-76
2022/06/08 00:22:21;;;;;;;24.77;12.82;;;;;;;;;;5140046;27;20104;-76
2022/06/08 00:24:47;;;;;;;25.55;12.95;;;;;;;;;;5147024;27;20475;-77
2022/06/08 00:27:14;;;;;;;26.17;12.52;;;;;;;;;;5143085;27;20112;-77
2022/06/08 00:29:40;;;;;;;27.77;12.95;;;;;;;;;;5167350;27;20542;-77
2022/06/08 00:32:07;;;;;;;25.65;13.18;;;;;;;;;;5164636;27;20050;-77
2022/06/08 00:34:33;;;;;;;28.63;13.77;;;;;;;;;;5145199;27;20146;-77
2022/06/08 00:36:59;;;;;;;27.35;13.18;;;;;;;;;;5160369;27;20091;-77
2022/06/08 00:39:26;;;;;;;25.75;13.93;;;;;;;;;;5142685;27;20050;-77
2022/06/08 00:41:55;;;;;;;26.10;14.02;;;;;;;;;;5170679;27;20146;-77
2022/06/08 00:44:30;;;;;;;27.05;14.18;;;;;;;;;;5145672;27;20061;-77
2022/06/08 00:46:58;;;;;;;29.73;13.85;;;;;;;;;;5147899;27;20116;-76
2022/06/08 00:49:27;;;;;;;27.70;13.48;;;;;;;;;;5137972;27;20097;-77
2022/06/08 00:51:54;;;;;;;29.88;13.63;;;;;;;;;;5142639;27;20725;-77
2022/06/08 00:54:41;;;;;;;27.48;13.73;;;;;;;;;;5157125;27;20139;-76
2022/06/08 00:57:15;;;;;;;28.58;14.38;;;;;;;;;;5147423;27;20080;-77
2022/06/08 00:59:47;;;;;;;27.33;14.48;;;;;;;;;;5145952;27;20432;-77
2022/06/08 01:02:14;;;;;;;29.80;13.73;;;;;;;;;;5137413;27;20138;-77
2022/06/08 01:04:40;;;;;;;28.90;14.07;;;;;;;;;;5133522;27;20083;-76
2022/06/08 01:07:07;;;;;;;27.95;14.13;;;;;;;;;;5152383;27;20142;-77
2022/06/08 01:09:40;;;;;;;27.75;14.68;;;;;;;;;;5144024;27;20122;-76
2022/06/08 01:12:10;;;;;;;27.42;14.40;;;;;;;;;;5144095;27;20050;-76
2022/06/08 01:14:36;;;;;;;;;;;;;;;;;;5168776;27;20102;-77
2022/06/08 01:17:06;;;;;;;29.92;13.02;;;;;;;;;;5142181;27;44686;-76
2022/06/08 01:19:34;;;;;;;30.27;14.50;;;;;;;;;;5159439;27;20112;-76
2022/06/08 01:22:01;;;;;;;29.58;13.35;;;;;;;;;;5143527;27;20087;-77
2022/06/08 01:24:28;;;;;;;30.77;14.02;;;;;;;;;;5147617;27;20050;-77
2022/06/08 01:27:03;;;;;;;30.77;13.20;;;;;;;;;;5151719;27;20098;-76
2022/06/08 01:29:35;;;;;;;31.52;14.50;;;;;;;;;;5141606;27;20051;-77
2022/06/08 01:32:13;;;;;;;28.58;13.50;;;;;;;;;;5144941;27;20049;-77
2022/06/08 01:34:49;;;;;;;28.55;14.32;;;;;;;;;;5165824;27;20054;-77
2022/06/08 01:37:15;;;;;;;28.95;12.70;;;;;;;;;;5146061;27;20141;-77
2022/06/08 01:40:02;;;;;;;27.35;14.10;;;;;;;;;;5141131;27;20398;-77
2022/06/08 01:42:28;;;;;;;28.55;13.73;;;;;;;;;;5131757;27;20442;-76
2022/06/08 01:47:54;;;;;;;28.15;14.13;;;;;;;;;;5166854;27;20050;-77
2022/06/08 01:50:42;;;;;;;27.92;13.85;;;;;;;;;;5159639;27;20046;-76
2022/06/08 01:53:30;;;;;;;28.27;13.40;;;;;;;;;;5137662;27;20104;-77
2022/06/08 01:56:03;;;;;;;26.42;13.73;;;;;;;;;;5149749;27;20145;-77
2022/06/08 01:58:48;;;;;;;28.52;13.40;;;;;;;;;;5140847;27;20062;-77
2022/06/08 02:01:19;;;;;;;28.65;13.18;;;;;;;;;;5153946;27;20119;-77
2022/06/08 02:03:45;;;;;;;28.55;12.38;;;;;;;;;;5148319;27;20081;-77
2022/06/08 02:06:23;;;;;;;23.85;12.48;;;;;;;;;;5162544;27;20263;-76
2022/06/08 02:08:57;;;;;;;27.23;12.65;;;;;;;;;;5143079;27;20060;-77
2022/06/08 02:11:37;;;;;;;31.02;13.85;;;;;;;;;;5147876;27;20051;-77
2022/06/08 02:14:07;;;;;;;23.38;12.13;;;;;;;;;;5147385;27;20091;-76
2022/06/08 02:16:39;;;;;;;28.20;12.65;;;;;;;;;;5145171;27;20082;-77
2022/06/08 02:19:14;;;;;;;23.70;12.00;;;;;;;;;;5166032;27;20058;-77
2022/06/08 02:22:02;;;;;;;25.95;12.25;;;;;;;;;;5148468;27;20102;-77
2022/06/08 02:24:37;;;;;;;22.70;11.70;;;;;;;;;;5128847;27;20108;-77
2022/06/08 02:27:10;;;;;;;29.95;12.98;;;;;;;;;;5158787;27;20514;-77
2022/06/08 02:29:39;;;;;;;23.13;11.95;;;;;;;;;;5152693;27;20047;-76
2022/06/08 02:35:16;;;;;;;27.05;12.70;;;;;;;;;;5070333;27;20047;-77
2022/06/08 02:37:44;;;;;;;27.10;12.30;;;;;;;;;;5140148;27;20059;-77
2022/06/08 02:40:17;;;;;;;25.23;12.52;;;;;;;;;;5134498;27;20196;-76
2022/06/08 02:42:45;;;;;;;27.83;13.85;;;;;;;;;;5142209;27;20063;-77
2022/06/08 02:45:17;;;;;;;28.42;13.88;;;;;;;;;;5166972;27;20050;-76
2022/06/08 02:47:45;;;;;;;25.33;12.48;;;;;;;;;;5146183;27;20142;-77
2022/06/08 02:50:14;;;;;;;28.90;13.43;;;;;;;;;;5145032;27;20133;-76
2022/06/08 02:52:42;;;;;;;28.35;14.23;;;;;;;;;;5170003;27;20069;-77
2022/06/08 02:55:20;;;;;;;30.02;14.65;;;;;;;;;;5144871;27;20319;-77
2022/06/08 02:57:58;;;;;;;26.02;14.18;;;;;;;;;;5162805;27;20103;-77
2022/06/08 03:00:28;;;;;;;37.80;15.68;;;;;;;;;;5153298;27;20047;-77
2022/06/08 03:03:00;;;;;;;32.55;15.35;;;;;;;;;;5141778;27;20047;-77
2022/06/08 03:05:29;;;;;;;32.60;16.05;;;;;;;;;;5152371;27;20620;-77
2022/06/08 03:07:58;;;;;;;33.30;15.45;;;;;;;;;;5163307;27;20088;-77
2022/06/08 03:10:25;;;;;;;36.90;17.20;;;;;;;;;;5152220;27;20097;-77
2022/06/08 03:12:56;;;;;;;36.20;17.95;;;;;;;;;;5165232;27;20077;-76
2022/06/08 03:15:23;;;;;;;36.53;17.27;;;;;;;;;;5139268;27;20129;-77
2022/06/08 03:17:50;;;;;;;36.08;18.23;;;;;;;;;;5136122;27;20055;-77
2022/06/08 03:20:18;;;;;;;36.60;17.65;;;;;;;;;;5156121;27;20628;-77
2022/06/08 03:22:44;;;;;;;36.25;17.50;;;;;;;;;;5139559;27;20749;-77
2022/06/08 03:25:11;;;;;;;41.85;19.48;;;;;;;;;;5145691;27;20035;-77
2022/06/08 03:27:37;;;;;;;38.83;19.33;;;;;;;;;;5138387;27;20055;-77
2022/06/08 03:30:07;;;;;;;38.40;18.10;;;;;;;;;;5138824;27;20094;-77
2022/06/08 03:32:33;;;;;;;43.33;20.03;;;;;;;;;;5149769;27;20085;-77
2022/06/08 03:35:00;;;;;;;37.22;19.27;;;;;;;;;;5167339;27;20158;-77
2022/06/08 03:37:26;;;;;;;41.35;21.08;;;;;;;;;;5134433;27;20050;-77
2022/06/08 03:39:52;;;;;;;39.78;19.75;;;;;;;;;;5141313;27;20055;-76
2022/06/08 03:42:19;;;;;;;44.15;20.73;;;;;;;;;;5138095;27;20477;-76
2022/06/08 03:44:45;;;;;;;44.05;21.33;;;;;;;;;;5160240;27;20135;-77
2022/06/08 03:47:16;;;;;;;42.30;20.15;;;;;;;;;;5132161;27;20055;-77
2022/06/08 03:49:43;;;;;;;42.90;20.77;;;;;;;;;;5138185;27;20053;-77
2022/06/08 03:52:14;;;;;;;43.90;20.67;;;;;;;;;;5144195;27;20354;-76
2022/06/08 03:54:43;;;;;;;40.85;18.92;;;;;;;;;;5140322;27;20051;-77
2022/06/08 03:57:10;;;;;;;44.17;21.30;;;;;;;;;;5139171;27;20055;-77
2022/06/08 03:59:40;;;;;;;39.25;20.00;;;;;;;;;;5138972;27;20057;-77
2022/06/08 04:02:07;;;;;;;42.92;21.67;;;;;;;;;;5168459;27;20099;-77
2022/06/08 04:04:33;;;;;;;42.53;21.10;;;;;;;;;;5145518;27;20130;-77
2022/06/08 04:06:59;;;;;;;38.40;20.25;;;;;;;;;;5162625;27;20085;-76
2022/06/08 04:09:26;;;;;;;41.53;20.48;;;;;;;;;;5162200;27;20062;-76
2022/06/08 04:11:52;;;;;;;44.42;20.70;;;;;;;;;;5134872;27;20061;-77
2022/06/08 04:14:18;;;;;;;40.55;20.60;;;;;;;;;;5140638;27;20055;-76
2022/06/08 04:16:45;;;;;;;42.83;21.00;;;;;;;;;;5143023;27;20895;-77
2022/06/08 04:19:11;;;;;;;37.45;19.92;;;;;;;;;;5138015;27;20055;-77
2022/06/08 04:21:38;;;;;;;39.72;20.25;;;;;;;;;;5166056;27;20047;-77
2022/06/08 04:24:04;;;;;;;44.20;20.83;;;;;;;;;;5142960;27;20461;-77
2022/06/08 04:26:31;;;;;;;45.25;21.38;;;;;;;;;;5143025;27;20051;-77
2022/06/08 04:28:57;;;;;;;40.63;19.92;;;;;;;;;;5168468;27;20062;-77
2022/06/08 04:31:23;;;;;;;40.90;20.35;;;;;;;;;;5142988;27;20118;-77
2022/06/08 04:33:53;;;;;;;42.03;19.73;;;;;;;;;;5163200;27;20137;-77
2022/06/08 04:36:20;;;;;;;37.22;19.65;;;;;;;;;;5131717;27;20349;-76
2022/06/08 04:38:46;;;;;;;42.92;20.02;;;;;;;;;;5130779;27;20054;-77
2022/06/08 04:41:13;;;;;;;36.50;17.90;;;;;;;;;;5152582;27;20067;-77
2022/06/08 04:43:40;;;;;;;40.15;20.38;;;;;;;;;;5145480;27;20059;-77
2022/06/08 04:46:07;;;;;;;37.75;19.20;;;;;;;;;;5159146;27;20523;-76
2022/06/08 04:48:34;;;;;;;41.80;20.85;;;;;;;;;;5140436;27;20092;-77
2022/06/08 04:51:01;;;;;;;37.55;19.08;;;;;;;;;;5144689;27;20042;-77
2022/06/08 04:53:28;;;;;;;35.15;18.10;;;;;;;;;;5152190;27;20570;-77
2022/06/08 04:55:54;;;;;;;36.30;18.85;;;;;;;;;;5142776;27;20062;-76
2022/06/08 04:58:26;;;;;;;37.95;19.15;;;;;;;;;;5144382;27;21019;-76
2022/06/08 05:00:53;;;;;;;34.72;17.42;;;;;;;;;;5136999;27;20108;-77
2022/06/08 05:03:20;;;;;;;33.40;17.70;;;;;;;;;;5140533;27;20061;-76
2022/06/08 05:05:47;;;;;;;30.90;17.65;;;;;;;;;;5150321;27;20063;-77
2022/06/08 05:08:16;;;;;;;33.53;17.95;;;;;;;;;;5131743;27;20051;-76
2022/06/08 05:10:42;;;;;;;31.65;17.08;;;;;;;;;;5132245;27;20077;-77
2022/06/08 05:13:09;;;;;;;31.17;16.60;;;;;;;;;;5140760;27;20875;-77
2022/06/08 05:15:37;;;;;;;31.27;16.42;;;;;;;;;;5137635;27;20039;-77
2022/06/08 05:18:04;;;;;;;27.50;15.55;;;;;;;;;;5161709;27;20066;-76
2022/06/08 05:20:31;;;;;;;30.58;16.60;;;;;;;;;;5131690;27;20089;-77
2022/06/08 05:22:57;;;;;;;30.25;16.02;;;;;;;;;;5156365;27;20233;-77
2022/06/08 05:25:31;;;;;;;25.75;15.07;;;;;;;;;;5172339;27;20064;-77
2022/06/08 05:27:58;;;;;;;26.70;15.35;;;;;;;;;;5138690;27;20580;-77
2022/06/08 05:30:25;;;;;;;24.98;14.57;;;;;;;;;;5150587;27;20062;-77
2022/06/08 05:32:52;;;;;;;25.08;15.77;;;;;;;;;;5146312;27;20046;-77
2022/06/08 05:35:19;;;;;;;25.05;15.02;;;;;;;;;;5142959;27;20086;-77
2022/06/08 05:37:46;;;;;;;28.95;15.48;;;;;;;;;;5143084;27;20059;-77
2022/06/08 05:40:12;;;;;;;27.63;15.57;;;;;;;;;;5141324;27;20065;-77
2022/06/08 05:42:38;;;;;;;27.98;15.48;;;;;;;;;;5139256;27;20150;-77
2022/06/08 05:45:06;;;;;;;27.92;15.10;;;;;;;;;;5147800;27;20069;-77
2022/06/08 05:47:33;;;;;;;24.02;14.18;;;;;;;;;;5130791;27;20864;-77
2022/06/08 05:49:59;;;;;;;26.42;15.15;;;;;;;;;;5145588;27;20058;-77
2022/06/08 05:52:26;;;;;;;27.83;15.57;;;;;;;;;;5146910;27;20054;-77
2022/06/08 05:54:52;;;;;;;25.08;14.25;;;;;;;;;;5142920;27;20070;-77
2022/06/08 05:57:19;;;;;;;25.08;13.98;;;;;;;;;;5144088;27;20142;-77
2022/06/08 05:59:45;;;;;;;22.77;13.63;;;;;;;;;;5154785;27;20118;-78
2022/06/08 06:02:12;;;;;;;27.88;13.75;;;;;;;;;;5140305;27;20047;-77
2022/06/08 06:04:39;;;;;;;25.00;13.43;;;;;;;;;;5151133;27;20050;-76
2022/06/08 06:07:06;;;;;;;22.17;12.90;;;;;;;;;;5140201;27;20067;-76
2022/06/08 06:09:32;;;;;;;22.58;11.93;;;;;;;;;;5139147;27;20055;-77
2022/06/08 06:11:58;;;;;;;19.88;11.68;;;;;;;;;;5139159;27;20053;-77
2022/06/08 06:14:25;;;;;;;20.85;12.18;;;;;;;;;;5130065;27;20047;-76
2022/06/08 06:16:51;;;;;;;17.35;11.20;;;;;;;;;;5126869;27;20075;-76
2022/06/08 06:19:18;;;;;;;18.33;10.30;;;;;;;;;;5133293;27;20513;-77
2022/06/08 06:21:44;;;;;;;16.88;10.77;;;;;;;;;;5133172;27;20135;-77
2022/06/08 06:24:13;;;;;;;18.75;10.23;;;;;;;;;;5152995;27;20126;-77
2022/06/08 06:26:42;;;;;;;16.95;9.05;;;;;;;;;;5134108;27;20043;-76
2022/06/08 06:29:10;;;;;;;21.25;9.88;;;;;;;;;;5161444;27;20137;-76
2022/06/08 06:31:41;;;;;;;15.30;9.48;;;;;;;;;;5135693;27;20566;-77
2022/06/08 06:34:12;;;;;;;16.65;9.48;;;;;;;;;;5153001;27;20050;-76
2022/06/08 06:36:38;;;;;;;13.95;8.90;;;;;;;;;;5148938;27;20130;-79
2022/06/08 06:39:05;;;;;;;14.70;8.68;;;;;;;;;;5152926;27;20047;-79
2022/06/08 06:41:32;;;;;;;13.82;8.38;;;;;;;;;;5153983;27;20145;-79
2022/06/08 06:43:59;;;;;;;13.10;7.82;;;;;;;;;;5139921;27;20967;-79
2022/06/08 06:46:26;;;;;;;13.57;8.13;;;;;;;;;;5143239;27;20074;-79
2022/06/08 06:48:52;;;;;;;12.45;7.45;;;;;;;;;;5139246;27;20052;-79
2022/06/08 06:51:18;;;;;;;11.90;7.82;;;;;;;;;;5174425;27;20061;-79
2022/06/08 06:53:45;;;;;;;10.75;7.15;;;;;;;;;;5158204;27;20057;-79
2022/06/08 06:56:12;;;;;;;11.48;7.05;;;;;;;;;;5144356;27;20050;-80
2022/06/08 06:58:38;;;;;;;10.68;6.43;;;;;;;;;;5173790;27;20057;-80
2022/06/08 07:01:05;;;;;;;9.30;5.80;;;;;;;;;;5143307;27;20098;-80
2022/06/08 07:03:32;;;;;;;9.15;5.68;;;;;;;;;;5162917;27;20535;-79
2022/06/08 07:05:59;;;;;;;8.77;5.85;;;;;;;;;;5168606;27;20047;-79
2022/06/08 07:08:26;;;;;;;10.68;5.88;;;;;;;;;;5163665;27;20059;-79
2022/06/08 07:13:37;;;;;;;10.38;6.40;;;;;;;;;;5169836;27;20046;-79
2022/06/08 07:16:04;;;;;;;9.10;5.97;;;;;;;;;;5167580;27;20157;-79
2022/06/08 07:18:31;;;;;;;10.65;5.75;;;;;;;;;;5144854;27;20080;-79
2022/06/08 07:20:57;;;;;;;8.20;5.43;;;;;;;;;;5145957;27;20082;-80
2022/06/08 07:23:23;;;;;;;11.68;5.57;;;;;;;;;;5147530;27;20038;-80
2022/06/08 07:25:50;;;;;;;7.45;5.13;;;;;;;;;;5157846;27;20059;-80
2022/06/08 07:28:16;;;;;;;8.55;5.13;;;;;;;;;;5172220;27;20517;-80
2022/06/08 07:30:43;;;;;;;10.25;5.60;;;;;;;;;;5163766;27;20063;-79
2022/06/08 07:33:09;;;;;;;10.95;5.38;;;;;;;;;;5178225;27;20136;-79
2022/06/08 07:35:36;;;;;;;8.35;5.15;;;;;;;;;;5143500;27;20142;-79
2022/06/08 07:38:02;;;;;;;7.78;5.22;;;;;;;;;;5142689;27;20055;-79
2022/06/08 07:40:29;;;;;;;9.07;5.10;;;;;;;;;;5162466;27;20032;-78
2022/06/08 07:42:55;;;;;;;9.75;5.40;;;;;;;;;;5162919;27;20044;-78
2022/06/08 07:45:21;;;;;;;9.15;5.20;;;;;;;;;;5158538;27;20051;-78
2022/06/08 07:50:33;;;;;;;9.88;5.28;;;;;;;;;;5163160;27;20111;-78
2022/06/08 07:53:00;;;;;;;6.55;4.30;;;;;;;;;;5160831;27;20489;-78
2022/06/08 07:55:26;;;;;;;8.52;4.88;;;;;;;;;;5167876;27;20077;-78
2022/06/08 07:57:53;;;;;;;6.75;4.65;;;;;;;;;;5135796;27;20524;-78
2022/06/08 08:00:20;;;;;;;10.23;5.20;;;;;;;;;;5142469;27;20116;-78
2022/06/08 08:02:46;;;;;;;7.85;4.50;;;;;;;;;;5152535;27;20059;-78
2022/06/08 08:05:13;;;;;;;9.00;5.22;;;;;;;;;;5136274;27;20059;-78
2022/06/08 08:07:41;;;;;;;10.52;5.03;;;;;;;;;;5134993;27;20124;-78
2022/06/08 08:10:09;;;;;;;7.65;4.50;;;;;;;;;;5140399;27;20106;-79
2022/06/08 08:12:36;;;;;;;7.95;4.03;;;;;;;;;;5142201;27;20798;-79
2022/06/08 08:15:03;;;;;;;8.93;4.25;;;;;;;;;;5144182;27;20104;-79
2022/06/08 08:17:29;;;;;;;10.50;4.07;;;;;;;;;;5167285;27;20070;-78
2022/06/08 08:19:56;;;;;;;9.40;4.13;;;;;;;;;;5145863;27;20134;-79
2022/06/08 08:22:22;;;;;;;7.70;4.28;;;;;;;;;;5164564;27;20058;-79
2022/06/08 08:24:48;;;;;;;6.63;3.67;;;;;;;;;;5151657;27;20092;-79
2022/06/08 08:27:15;;;;;;;7.53;4.40;;;;;;;;;;5138411;27;20074;-79
2022/06/08 08:29:41;;;;;;;6.97;4.13;;;;;;;;;;5144076;27;20043;-79
2022/06/08 08:32:11;;;;;;;6.47;3.83;;;;;;;;;;5142863;27;20115;-78
2022/06/08 08:34:37;;;;;;;7.53;4.03;;;;;;;;;;5157400;27;20138;-77
2022/06/08 08:37:03;;;;;;;7.63;3.88;;;;;;;;;;5131117;27;20055;-78
2022/06/08 08:39:30;;;;;;;9.43;4.00;;;;;;;;;;5139139;27;20893;-78
2022/06/08 08:44:44;;;;;;;8.70;4.03;;;;;;;;;;5151855;27;20150;-78
2022/06/08 08:47:23;;;;;;;8.65;3.88;;;;;;;;;;5135001;27;20062;-79
2022/06/08 08:49:52;;;;;;;11.23;3.78;;;;;;;;;;5142743;27;20053;-79
2022/06/08 08:52:24;;;;;;;7.35;3.80;;;;;;;;;;5135419;27;20065;-79
2022/06/08 08:54:54;;;;;;;8.82;3.50;;;;;;;;;;5137638;27;20493;-79
2022/06/08 08:57:21;;;;;;;;;;;;;;;;;;5141586;27;20065;-79
2022/06/08 08:59:51;;;;;;;7.43;3.72;;;;;;;;;;5146955;27;46176;-79
2022/06/08 09:05:16;;;;;;;8.75;3.67;;;;;;;;;;5123517;27;20059;-78
2022/06/08 09:07:43;;;;;;;8.30;3.95;;;;;;;;;;5144785;27;20313;-78
2022/06/08 09:10:14;;;;;;;7.05;3.58;;;;;;;;;;5146359;27;20039;-78
2022/06/08 09:12:44;;;;;;;7.28;3.42;;;;;;;;;;5151493;27;20404;-78
2022/06/08 09:15:10;;;;;;;10.10;4.10;;;;;;;;;;5141965;27;20035;-78
2022/06/08 09:17:38;;;;;;;8.68;3.65;;;;;;;;;;5132513;27;20062;-78
2022/06/08 09:20:16;;;;;;;9.52;3.83;;;;;;;;;;5153660;27;20059;-78
2022/06/08 09:22:47;;;;;;;9.93;3.55;;;;;;;;;;5162714;27;20138;-79
2022/06/08 09:25:22;;;;;;;10.13;3.63;;;;;;;;;;5166068;27;20083;-79
2022/06/08 09:27:50;;;;;;;8.25;3.70;;;;;;;;;;5150510;27;20054;-79
2022/06/08 09:30:18;;;;;;;9.32;3.75;;;;;;;;;;5144316;27;20062;-78
2022/06/08 09:32:47;;;;;;;11.77;3.40;;;;;;;;;;5140434;27;20077;-79
2022/06/08 09:35:26;;;;;;;8.05;3.53;;;;;;;;;;5160708;27;20091;-79
2022/06/08 09:37:54;;;;;;;7.50;3.60;;;;;;;;;;5142227;27;20997;-79
2022/06/08 09:40:37;;;;;;;7.40;3.95;;;;;;;;;;5159311;27;20055;-79
2022/06/08 09:43:07;;;;;;;9.15;3.80;;;;;;;;;;5138141;27;20044;-79
2022/06/08 09:45:36;;;;;;;10.02;4.18;;;;;;;;;;5146386;27;20142;-79
2022/06/08 09:51:25;;;;;;;7.47;3.38;;;;;;;;;;5163740;27;20051;-79
2022/06/08 09:54:11;;;;;;;5.93;2.95;;;;;;;;;;5134600;27;20141;-79
2022/06/08 09:56:52;;;;;;;9.45;3.75;;;;;;;;;;5137714;27;20047;-79
2022/06/08 09:59:22;;;;;;;7.72;3.95;;;;;;;;;;5158062;27;20479;-79
2022/06/08 10:01:55;;;;;;;9.50;3.55;;;;;;;;;;5154924;27;20497;-79
2022/06/08 10:04:26;;;;;;;6.38;2.63;;;;;;;;;;5167257;27;20042;-79
2022/06/08 10:07:08;;;;;;;6.85;2.65;;;;;;;;;;5148230;27;20082;-79
2022/06/08 10:10:01;;;;;;;9.32;2.83;;;;;;;;;;5155084;27;20131;-79
2022/06/08 10:12:35;;;;;;;7.38;2.10;;;;;;;;;;5152019;27;20116;-78
2022/06/08 10:15:08;;;;;;;7.00;2.30;;;;;;;;;;5165297;27;20054;-78
2022/06/08 10:17:40;;;;;;;8.18;2.38;;;;;;;;;;5134005;27;20040;-78
2022/06/08 10:20:06;;;;;;;6.45;2.08;;;;;;;;;;5155461;27;20042;-78
2022/06/08 10:22:38;;;;;;;8.68;2.30;;;;;;;;;;5170985;27;20122;-78
2022/06/08 10:25:16;;;;;;;8.32;2.40;;;;;;;;;;5156485;27;20062;-79
2022/06/08 10:27:50;;;;;;;8.25;2.45;;;;;;;;;;5157184;27;20131;-79
2022/06/08 10:30:19;;;;;;;10.55;2.75;;;;;;;;;;5157048;27;20432;-79
2022/06/08 10:32:49;;;;;;;7.63;2.42;;;;;;;;;;5162641;27;20054;-79
2022/06/08 10:35:25;;;;;;;9.05;2.28;;;;;;;;;;5141591;27;20085;-79
2022/06/08 10:37:52;;;;;;;9.80;2.50;;;;;;;;;;5155762;27;20137;-78
2022/06/08 10:40:24;;;;;;;8.73;2.35;;;;;;;;;;5137876;27;20058;-79
2022/06/08 10:42:51;;;;;;;9.70;2.17;;;;;;;;;;5134808;27;20844;-78
2022/06/08 10:45:23;;;;;;;9.73;1.85;;;;;;;;;;5150600;27;20047;-77
2022/06/08 10:47:53;;;;;;;6.82;1.73;;;;;;;;;;5168884;27;20058;-78
2022/06/08 10:50:31;;;;;;;6.70;1.67;;;;;;;;;;5151980;27;20123;-77
2022/06/08 10:54:53;;;;;;;7.93;2.10;;;;;;;;;;5147934;27;20065;-77
2022/06/08 10:55:45;;;;;;;6.93;2.00;;;;;;;;;;5167682;27;20047;-78
2022/06/08 10:58:13;;;;;;;4.70;1.60;;;;;;;;;;5153247;27;20074;-78
2022/06/08 11:00:51;;;;;;;7.82;2.10;;;;;;;;;;5160281;27;20055;-78
2022/06/08 11:03:36;;;;;;;10.75;2.17;;;;;;;;;;5148766;27;20054;-78
2022/06/08 11:06:07;;;;;;;6.13;1.60;;;;;;;;;;5151169;27;20031;-78
2022/06/08 11:08:51;;;;;;;6.85;1.85;;;;;;;;;;5152500;27;20497;-78
2022/06/08 11:11:41;;;;;;;10.43;1.80;;;;;;;;;;5137175;27;20564;-78
2022/06/08 11:14:24;;;;;;;6.13;2.10;;;;;;;;;;5137765;27;20047;-78
2022/06/08 11:16:52;;;;;;;6.28;1.80;;;;;;;;;;5169737;27;20054;-78
2022/06/08 11:19:18;;;;;;;8.60;1.92;;;;;;;;;;5169464;27;20051;-78
2022/06/08 11:21:50;;;;;;;5.93;1.90;;;;;;;;;;5142284;27;20051;-77
2022/06/08 11:24:19;;;;;;;6.25;1.63;;;;;;;;;;5135155;27;20058;-78
2022/06/08 11:27:06;;;;;;;7.60;1.85;;;;;;;;;;5153700;27;20035;-78
2022/06/08 11:29:36;;;;;;;8.52;2.45;;;;;;;;;;5160102;27;20041;-80
2022/06/08 11:32:03;;;;;;;6.70;2.40;;;;;;;;;;5157125;27;20051;-78
2022/06/08 11:34:50;;;;;;;8.43;2.35;;;;;;;;;;5151185;27;20059;-78
2022/06/08 11:37:16;;;;;;;8.15;2.00;;;;;;;;;;5096888;27;20055;-78
2022/06/08 11:39:42;;;;;;;8.05;2.45;;;;;;;;;;5149658;27;20237;-78
2022/06/08 11:42:44;;;;;;;8.80;2.42;;;;;;;;;;5149267;27;20078;-78
2022/06/08 11:45:15;;;;;;;7.70;2.55;;;;;;;;;;5043962;28;20156;-78
2022/06/08 11:47:44;;;;;;;7.95;2.50;;;;;;;;;;5137825;27;20047;-77
2022/06/08 11:50:13;;;;;;;7.80;2.60;;;;;;;;;;5168114;27;20059;-77
2022/06/08 11:52:41;;;;;;;7.63;2.35;;;;;;;;;;5151256;27;20061;-77
2022/06/08 11:55:11;;;;;;;10.20;2.60;;;;;;;;;;5147895;27;20057;-77
2022/06/08 11:57:43;;;;;;;7.32;2.83;;;;;;;;;;5150900;27;20051;-77
2022/06/08 12:00:15;;;;;;;8.38;2.85;;;;;;;;;;5147253;27;20127;-79
2022/06/08 12:02:42;;;;;;;8.80;2.50;;;;;;;;;;5160479;27;20051;-78
2022/06/08 12:05:10;;;;;;;9.07;2.72;;;;;;;;;;5134833;27;20059;-76
2022/06/08 12:07:47;;;;;;;7.65;2.70;;;;;;;;;;5129255;27;20868;-76
2022/06/08 12:10:17;;;;;;;7.65;2.55;;;;;;;;;;5131363;27;20534;-76
2022/06/08 12:12:44;;;;;;;8.27;2.55;;;;;;;;;;5130126;27;20051;-76
2022/06/08 12:15:34;;;;;;;9.43;3.17;;;;;;;;;;5137233;27;20513;-75
2022/06/08 12:18:08;;;;;;;8.77;2.70;;;;;;;;;;5134235;27;20141;-75
2022/06/08 12:20:40;;;;;;;9.55;3.33;;;;;;;;;;5143388;27;20061;-76
2022/06/08 12:23:06;;;;;;;11.02;3.38;;;;;;;;;;5146421;27;20042;-75
2022/06/08 12:25:33;;;;;;;9.88;3.58;;;;;;;;;;5138092;27;20051;-75
2022/06/08 12:28:03;;;;;;;9.65;3.33;;;;;;;;;;5148222;27;20133;-75
2022/06/08 12:30:31;;;;;;;9.20;3.28;;;;;;;;;;5146462;27;20051;-75
2022/06/08 12:33:00;;;;;;;8.25;3.50;;;;;;;;;;5144526;27;20585;-75
2022/06/08 12:35:28;;;;;;;10.88;3.45;;;;;;;;;;5147726;27;20061;-74
2022/06/08 12:38:07;;;;;;;10.18;3.53;;;;;;;;;;5164820;27;20107;-74
2022/06/08 12:40:34;;;;;;;8.98;3.25;;;;;;;;;;5167348;27;20098;-74
2022/06/08 12:43:06;;;;;;;8.70;3.15;;;;;;;;;;5152841;27;20051;-74
2022/06/08 12:45:34;;;;;;;13.48;3.10;;;;;;;;;;5152400;27;20063;-74
2022/06/08 12:48:19;;;;;;;8.88;3.38;;;;;;;;;;5151039;27;20142;-74
2022/06/08 12:50:45;;;;;;;7.20;3.25;;;;;;;;;;5146842;27;20054;-75
2022/06/08 12:53:12;;;;;;;7.97;2.97;;;;;;;;;;5131674;27;20050;-75
2022/06/08 12:55:40;;;;;;;8.63;3.67;;;;;;;;;;5132489;27;20047;-75
2022/06/08 12:58:06;;;;;;;7.63;3.35;;;;;;;;;;5134135;27;20053;-75
2022/06/08 13:00:36;;;;;;;8.45;3.38;;;;;;;;;;5161202;27;20130;-75
2022/06/08 13:03:17;;;;;;;10.18;3.25;;;;;;;;;;5128621;27;20046;-75
2022/06/08 13:05:44;;;;;;;6.50;3.40;;;;;;;;;;5152036;27;20058;-75
2022/06/08 13:08:14;;;;;;;10.35;3.20;;;;;;;;;;5149070;27;20051;-76
2022/06/08 13:10:41;;;;;;;7.40;2.95;;;;;;;;;;5148531;27;20053;-75
2022/06/08 13:13:14;;;;;;;6.60;2.30;;;;;;;;;;5148328;27;20134;-75
2022/06/08 13:15:40;;;;;;;5.82;2.08;;;;;;;;;;5149264;27;20058;-75
2022/06/08 13:18:10;;;;;;;5.20;2.20;;;;;;;;;;5143741;27;20051;-75
2022/06/08 13:20:37;;;;;;;5.03;1.88;;;;;;;;;;5140269;27;20073;-75
2022/06/08 13:23:04;;;;;;;5.05;1.50;;;;;;;;;;5147304;27;20721;-75
2022/06/08 13:25:33;;;;;;;7.25;1.95;;;;;;;;;;5151944;27;20058;-75
2022/06/08 13:27:59;;;;;;;5.47;1.92;;;;;;;;;;5139146;27;20154;-76
2022/06/08 13:30:27;;;;;;;6.93;2.05;;;;;;;;;;5146000;27;20055;-74
2022/06/08 13:32:54;;;;;;;5.53;1.83;;;;;;;;;;5143040;27;20082;-74
2022/06/08 13:35:22;;;;;;;4.25;1.70;;;;;;;;;;5143007;27;20051;-74
2022/06/08 13:37:49;;;;;;;5.85;2.00;;;;;;;;;;5157427;27;20146;-75
2022/06/08 13:40:20;;;;;;;6.03;1.75;;;;;;;;;;5156290;27;20057;-74
2022/06/08 13:42:47;;;;;;;6.38;1.98;;;;;;;;;;5148716;27;20527;-74
2022/06/08 13:45:15;;;;;;;7.13;1.95;;;;;;;;;;5151300;27;20226;-74
2022/06/08 13:47:44;;;;;;;4.85;1.65;;;;;;;;;;5156078;27;20047;-75
2022/06/08 13:50:29;;;;;;;6.45;1.80;;;;;;;;;;5136663;27;20146;-75
2022/06/08 13:52:57;;;;;;;4.00;1.80;;;;;;;;;;5145736;27;20485;-75
2022/06/08 13:55:25;;;;;;;4.82;2.22;;;;;;;;;;5151383;27;20057;-75
2022/06/08 13:57:53;;;;;;;8.90;1.90;;;;;;;;;;5151135;27;20058;-75
2022/06/08 14:00:20;;;;;;;7.53;2.20;;;;;;;;;;5128652;27;20061;-75
2022/06/08 14:03:08;;;;;;;6.55;2.22;;;;;;;;;;5150707;27;20093;-74
2022/06/08 14:14:39;;;;;;;5.22;2.38;;;;;;;;;;5082742;27;20086;-75
2022/06/08 14:17:05;;;;;;;6.10;2.60;;;;;;;;;;5145690;27;20054;-75
2022/06/08 14:19:33;;;;;;;5.70;2.83;;;;;;;;;;5157744;27;20054;-75
2022/06/08 14:22:00;;;;;;;5.88;2.50;;;;;;;;;;5153375;27;20067;-75
2022/06/08 14:24:29;;;;;;;4.65;2.40;;;;;;;;;;5136827;27;20048;-75
2022/06/08 14:26:55;;;;;;;7.47;2.50;;;;;;;;;;5162558;27;20086;-76
2022/06/08 14:29:22;;;;;;;7.63;2.63;;;;;;;;;;5130939;27;20051;-76
2022/06/08 14:31:49;;;;;;;6.53;2.45;;;;;;;;;;5143531;27;20051;-75
2022/06/08 14:34:21;;;;;;;10.60;2.53;;;;;;;;;;5136005;27;20054;-75
2022/06/08 14:36:49;;;;;;;5.97;2.70;;;;;;;;;;5159319;27;20627;-75
2022/06/08 14:39:25;;;;;;;6.88;2.50;;;;;;;;;;5166449;27;20043;-75
2022/06/08 14:41:51;;;;;;;5.15;2.50;;;;;;;;;;5136780;27;20339;-76
2022/06/08 14:44:20;;;;;;;7.38;2.90;;;;;;;;;;5154777;27;20078;-76
2022/06/08 14:46:54;;;;;;;6.45;2.75;;;;;;;;;;5138612;27;20116;-76
2022/06/08 14:49:26;;;;;;;4.93;2.83;;;;;;;;;;5137583;27;20497;-76
2022/06/08 14:51:55;;;;;;;6.35;3.00;;;;;;;;;;5149318;27;20046;-77
2022/06/08 14:54:23;;;;;;;6.70;3.30;;;;;;;;;;5145213;27;20055;-76
2022/06/08 14:56:53;;;;;;;5.68;2.85;;;;;;;;;;5131077;27;20075;-76
2022/06/08 14:59:21;;;;;;;5.30;3.33;;;;;;;;;;5135238;27;20051;-76
2022/06/08 15:01:49;;;;;;;8.25;3.50;;;;;;;;;;5143153;27;20510;-76
2022/06/08 15:04:17;;;;;;;7.05;3.83;;;;;;;;;;5139479;27;20047;-76
2022/06/08 15:06:44;;;;;;;8.07;4.93;;;;;;;;;;5158794;27;20090;-76
2022/06/08 15:09:11;;;;;;;7.80;5.00;;;;;;;;;;5143824;27;20113;-76
2022/06/08 15:14:30;;;;;;;8.43;5.25;;;;;;;;;;5153327;27;20756;-77
2022/06/08 15:16:57;;;;;;;9.38;5.68;;;;;;;;;;5127342;27;20077;-76